createdAt,value
2022-09-16T00:00:54.202Z,10.49
2022-09-16T00:03:22.045Z,10.44
2022-09-16T00:05:51.375Z,10.46
2022-09-16T00:08:22.951Z,10.45
2022-09-16T00:10:50.549Z,10.40
2022-09-16T00:13:19.098Z,10.44
2022-09-16T00:15:49.226Z,10.48
2022-09-16T00:18:16.830Z,10.46
2022-09-16T00:20:46.645Z,10.41
2022-09-16T00:23:13.846Z,10.39
2022-09-16T00:25:41.656Z,10.36
2022-09-16T00:28:08.983Z,10.35
2022-09-16T00:30:39.340Z,10.42
2022-09-16T00:33:06.533Z,10.42
2022-09-16T00:35:36.414Z,10.45
2022-09-16T00:38:03.644Z,10.46
2022-09-16T00:40:30.833Z,10.49
2022-09-16T00:43:00.143Z,10.51
2022-09-16T00:45:31.580Z,10.53
2022-09-16T00:48:07.841Z,10.59
2022-09-16T00:50:52.051Z,10.57
2022-09-16T00:53:25.083Z,10.57
2022-09-16T00:55:55.170Z,10.53
2022-09-16T00:58:50.299Z,10.64
2022-09-16T01:01:17.613Z,10.61
2022-09-16T16:20:56.972Z,13.33
2022-09-16T16:23:24.448Z,13.31
2022-09-16T16:25:51.502Z,13.11
2022-09-16T16:28:18.706Z,13.01
2022-09-16T16:30:45.939Z,12.97
2022-09-16T16:33:13.124Z,12.85
2022-09-16T16:35:40.253Z,12.83
2022-09-16T16:38:08.173Z,12.73
2022-09-16T16:40:35.896Z,12.61
2022-09-16T16:43:03.047Z,12.57
2022-09-16T16:45:31.429Z,12.60
2022-09-16T16:47:58.761Z,12.45
2022-09-16T16:50:26.093Z,12.39
2022-09-16T16:52:53.521Z,12.34
2022-09-16T16:55:20.772Z,12.29
2022-09-16T16:57:48.369Z,12.28
2022-09-16T17:00:16.369Z,12.29
2022-09-16T17:02:43.732Z,12.23
2022-09-16T17:05:11.618Z,12.10
2022-09-16T17:07:38.753Z,12.02
2022-09-16T17:10:06.411Z,11.97
2022-09-16T17:12:34.378Z,11.86
2022-09-16T17:15:01.755Z,11.82
2022-09-16T17:17:31.844Z,11.87
2022-09-16T17:20:03.056Z,11.82
2022-09-16T17:22:30.820Z,11.66
2022-09-16T17:24:59.120Z,11.67
2022-09-16T17:27:27.893Z,11.62
2022-09-16T17:29:55.238Z,11.64
2022-09-16T17:32:22.491Z,11.64
2022-09-16T17:34:49.580Z,11.50
2022-09-16T17:37:19.818Z,11.47
2022-09-16T17:39:48.640Z,11.42
2022-09-16T17:42:16.130Z,11.39
2022-09-16T17:44:43.282Z,11.38
2022-09-16T17:47:10.539Z,11.35
2022-09-16T17:49:37.602Z,11.30
2022-09-16T17:52:04.873Z,11.25
2022-09-16T17:54:32.034Z,11.25
2022-09-16T17:56:59.149Z,11.27
2022-09-16T17:59:26.336Z,11.32
2022-09-16T18:01:53.461Z,11.44
2022-09-16T18:04:20.734Z,11.42
2022-09-16T18:06:47.959Z,11.41
2022-09-16T18:09:16.603Z,11.49
2022-09-16T18:11:44.874Z,11.47
2022-09-16T18:14:13.527Z,11.42
2022-09-16T18:16:43.329Z,11.39
2022-09-16T18:19:10.566Z,11.37
2022-09-16T18:21:38.256Z,11.34
2022-09-16T18:24:10.962Z,11.43
2022-09-16T18:26:38.617Z,11.43
2022-09-16T18:29:10.027Z,11.30
2022-09-16T18:31:44.186Z,11.19
2022-09-16T18:34:12.505Z,11.15
2022-09-16T18:36:40.066Z,11.28
2022-09-16T18:39:10.906Z,11.18
2022-09-16T18:41:39.754Z,11.15
2022-09-16T18:44:16.394Z,11.19
2022-09-16T18:46:44.254Z,11.15
2022-09-16T18:49:13.125Z,11.09
2022-09-16T18:51:50.868Z,11.05
2022-09-16T18:54:25.287Z,11.09
2022-09-16T18:56:56.105Z,11.08
2022-09-16T18:59:28.291Z,11.10
2022-09-16T19:01:58.089Z,11.08
2022-09-16T19:04:28.422Z,11.14
2022-09-16T19:06:59.365Z,11.12
2022-09-16T19:09:26.624Z,11.12
2022-09-16T19:11:54.409Z,11.11
2022-09-16T19:14:24.706Z,11.06
2022-09-16T19:16:54.180Z,10.96
2022-09-16T19:19:22.866Z,10.93
2022-09-16T19:21:50.432Z,10.92
2022-09-16T19:24:20.780Z,10.91
2022-09-16T19:26:50.753Z,10.90
2022-09-16T19:29:19.167Z,10.92
2022-09-16T19:31:53.032Z,10.83
2022-09-16T19:34:23.685Z,10.83
2022-09-16T19:36:50.968Z,10.76
2022-09-16T19:39:18.653Z,10.72
2022-09-16T19:41:46.205Z,10.67
2022-09-16T19:44:15.759Z,10.63
2022-09-16T19:46:44.736Z,10.58
2022-09-16T19:49:18.559Z,10.53
2022-09-16T19:51:46.259Z,10.50
2022-09-16T19:54:13.645Z,10.47
2022-09-16T19:56:41.886Z,10.45
2022-09-16T19:59:09.272Z,10.38
2022-09-16T20:01:38.377Z,10.41
2022-09-16T20:04:08.318Z,10.41
2022-09-16T20:06:40.671Z,10.39
2022-09-16T20:09:11.720Z,10.40
2022-09-16T20:11:42.825Z,10.39
2022-09-16T20:14:19.461Z,10.38
2022-09-16T20:16:47.973Z,10.36
2022-09-16T20:19:17.731Z,10.29
2022-09-16T20:21:45.262Z,10.35
2022-09-16T20:24:21.094Z,10.36
2022-09-16T20:26:49.891Z,10.34
2022-09-16T20:29:18.399Z,10.28
2022-09-16T20:31:47.217Z,10.19
2022-09-16T20:34:16.308Z,10.13
2022-09-16T20:36:45.204Z,10.16
2022-09-16T20:39:13.811Z,10.20
2022-09-16T20:41:42.225Z,10.36
2022-09-16T20:44:14.656Z,10.32
2022-09-16T20:46:41.951Z,10.37
2022-09-16T20:49:37.914Z,10.32
2022-09-16T20:52:06.658Z,10.30
2022-09-16T20:54:33.891Z,10.26
2022-09-16T20:57:01.003Z,10.18
2022-09-16T20:59:28.200Z,10.14
2022-09-16T21:01:56.282Z,10.07
2022-09-16T21:04:23.394Z,10.13
2022-09-16T21:06:50.563Z,10.15
2022-09-16T21:09:19.149Z,10.15
2022-09-16T21:11:47.316Z,10.12
2022-09-16T21:14:16.265Z,10.06
2022-09-16T21:16:46.193Z,10.03
2022-09-16T21:19:14.627Z,10.03
2022-09-16T21:21:44.529Z,10.08
2022-09-16T21:24:13.193Z,10.03
2022-09-16T21:26:41.358Z,9.96
2022-09-16T21:29:15.184Z,9.94
2022-09-16T21:31:42.872Z,9.91
2022-09-16T21:34:15.884Z,9.88
2022-09-16T21:36:44.750Z,9.84
2022-09-16T21:39:16.649Z,9.84
2022-09-16T21:41:45.623Z,9.78
2022-09-16T21:44:13.826Z,9.78
2022-09-16T21:46:45.087Z,9.77
2022-09-16T21:49:19.253Z,9.74
2022-09-16T21:51:46.773Z,9.76
2022-09-16T21:54:19.712Z,9.72
2022-09-16T21:56:48.368Z,9.74
2022-09-16T21:59:15.778Z,9.74
2022-09-16T22:01:43.619Z,9.72
2022-09-16T22:04:16.568Z,9.64
2022-09-16T22:06:44.326Z,9.75
2022-09-16T22:09:14.741Z,9.68
2022-09-16T22:11:42.408Z,9.63
2022-09-16T22:14:12.044Z,9.61
2022-09-16T22:16:39.701Z,9.56
2022-09-16T22:19:10.040Z,9.57
2022-09-16T22:21:41.174Z,9.56
2022-09-16T22:24:09.409Z,9.67
2022-09-16T22:26:37.536Z,9.71
2022-09-16T22:29:06.371Z,9.63
2022-09-16T22:31:36.036Z,9.64
2022-09-16T22:34:03.512Z,9.60
2022-09-16T22:36:33.168Z,9.55
2022-09-16T22:39:04.619Z,9.55
2022-09-16T22:41:33.225Z,9.52
2022-09-16T22:44:00.873Z,9.50
2022-09-16T22:46:34.159Z,9.46
2022-09-16T22:49:01.681Z,9.49
2022-09-16T22:51:29.345Z,9.51
2022-09-16T22:53:56.663Z,9.50
2022-09-16T22:56:32.009Z,9.49
2022-09-16T22:59:06.126Z,9.42
2022-09-16T23:01:39.849Z,9.33
2022-09-16T23:04:09.616Z,9.39
2022-09-16T23:06:38.666Z,9.45
2022-09-16T23:09:07.742Z,9.43
2022-09-16T23:11:35.869Z,9.40
2022-09-16T23:14:05.221Z,9.43
2022-09-16T23:16:35.844Z,9.40
2022-09-16T23:19:06.502Z,9.35
2022-09-16T23:21:33.824Z,9.34
2022-09-16T23:24:03.241Z,9.32
2022-09-16T23:26:33.905Z,9.41
2022-09-16T23:29:02.863Z,9.32
2022-09-16T23:31:32.834Z,9.33
2022-09-16T23:34:01.150Z,9.31
2022-09-16T23:36:28.661Z,9.31
2022-09-16T23:38:56.048Z,9.27
2022-09-16T23:41:27.367Z,9.22
2022-09-16T23:43:55.981Z,9.32
2022-09-16T23:46:25.269Z,9.23
2022-09-16T23:48:52.897Z,9.35
2022-09-16T23:51:27.210Z,9.35
2022-09-16T23:53:56.941Z,9.30
2022-09-16T23:56:24.395Z,9.31
2022-09-16T23:58:52.100Z,9.28
